createdAt,value
2022-12-24T00:01:33.626Z,5.35
2022-12-24T00:04:01.469Z,5.37
2022-12-24T00:06:29.129Z,5.36
2022-12-24T00:08:56.962Z,5.35
2022-12-24T00:11:24.484Z,5.36
2022-12-24T00:13:52.031Z,5.37
2022-12-24T00:16:19.699Z,5.31
2022-12-24T00:18:47.406Z,5.32
2022-12-24T00:21:16.381Z,5.30
2022-12-24T00:23:44.250Z,5.31
2022-12-24T00:26:13.422Z,5.25
2022-12-24T00:28:41.630Z,5.27
2022-12-24T00:31:13.037Z,5.27
2022-12-24T00:33:41.054Z,5.29
2022-12-24T00:36:09.823Z,5.27
2022-12-24T00:38:38.707Z,5.30
2022-12-24T00:41:25.070Z,5.32
2022-12-24T00:43:57.559Z,5.25
2022-12-24T00:46:27.055Z,5.25
2022-12-24T00:48:55.354Z,5.28
2022-12-24T00:51:24.301Z,5.27
2022-12-24T00:53:52.995Z,5.27
2022-12-24T00:56:21.588Z,5.33
2022-12-24T00:58:49.367Z,5.27
2022-12-24T01:01:17.924Z,5.21
2022-12-24T01:03:46.019Z,5.24
2022-12-24T01:06:19.603Z,5.21
2022-12-24T01:08:51.420Z,5.22
2022-12-24T01:11:19.340Z,5.26
2022-12-24T01:13:47.638Z,5.21
2022-12-24T01:16:20.751Z,5.18
2022-12-24T01:18:48.804Z,5.26
2022-12-24T01:21:17.120Z,5.18
2022-12-24T01:23:45.162Z,5.22
2022-12-24T01:26:13.068Z,5.17
2022-12-24T01:28:41.645Z,5.19
2022-12-24T01:31:15.568Z,5.17
2022-12-24T01:33:44.211Z,5.20
2022-12-24T01:36:13.362Z,5.20
2022-12-24T01:38:41.556Z,5.15
2022-12-24T01:41:34.930Z,5.16
2022-12-24T01:44:35.675Z,5.17
2022-12-24T01:47:28.135Z,5.20
2022-12-24T01:50:02.170Z,5.21
2022-12-24T01:52:33.584Z,5.20
2022-12-24T01:55:08.252Z,5.20
2022-12-24T01:57:42.323Z,5.10
2022-12-24T02:00:13.332Z,5.13
2022-12-24T02:02:44.241Z,5.17
2022-12-24T02:05:24.693Z,5.14
2022-12-24T02:07:53.053Z,5.16
2022-12-24T02:10:20.694Z,5.18
2022-12-24T02:12:49.376Z,5.17
2022-12-24T02:15:19.581Z,5.18
2022-12-24T02:17:53.867Z,5.12
2022-12-24T02:20:49.595Z,5.03
2022-12-24T02:23:23.862Z,5.12
2022-12-24T02:25:57.102Z,5.20
2022-12-24T02:28:58.771Z,5.19
2022-12-24T02:31:33.627Z,5.16
2022-12-24T02:34:25.517Z,5.21
2022-12-24T02:37:15.472Z,5.17
2022-12-24T02:39:42.956Z,5.30
2022-12-24T02:42:13.916Z,5.33
2022-12-24T02:44:49.747Z,5.31
2022-12-24T02:47:19.604Z,5.38
2022-12-24T02:49:49.075Z,5.41
2022-12-24T02:52:31.536Z,5.39
2022-12-24T02:55:03.191Z,5.30
2022-12-24T02:57:43.739Z,5.35
2022-12-24T03:00:17.098Z,5.30
2022-12-24T03:03:09.410Z,5.25
2022-12-24T03:05:49.904Z,5.22
2022-12-24T03:08:36.001Z,5.16
2022-12-24T03:11:12.271Z,5.12
2022-12-24T03:13:41.693Z,5.10
2022-12-24T03:16:15.009Z,4.98
2022-12-24T03:18:49.735Z,4.97
2022-12-24T03:21:24.242Z,4.99
2022-12-24T03:23:52.078Z,4.98
2022-12-24T03:26:20.599Z,5.00
2022-12-24T03:28:48.630Z,4.99
2022-12-24T03:31:17.181Z,4.84
2022-12-24T03:33:45.452Z,4.84
2022-12-24T03:36:13.763Z,4.84
2022-12-24T03:38:41.509Z,4.82
2022-12-24T03:41:09.365Z,4.80
2022-12-24T03:43:37.040Z,4.82
2022-12-24T03:46:09.110Z,4.84
2022-12-24T03:48:37.276Z,4.88
2022-12-24T03:51:05.179Z,4.78
2022-12-24T03:53:34.911Z,4.88
2022-12-24T03:56:02.511Z,5.02
2022-12-24T03:58:30.189Z,5.08
2022-12-24T04:00:57.687Z,5.14
2022-12-24T04:03:25.387Z,5.08
2022-12-24T04:06:28.720Z,5.14
2022-12-24T04:08:56.504Z,5.22
2022-12-24T04:11:24.213Z,5.15
2022-12-24T04:13:51.776Z,5.12
2022-12-24T04:16:19.435Z,5.14
2022-12-24T04:18:47.148Z,5.16
2022-12-24T04:21:14.810Z,5.11
2022-12-24T04:23:43.460Z,5.11
2022-12-24T04:26:12.996Z,5.02
2022-12-24T04:28:42.458Z,4.98
2022-12-24T04:31:15.860Z,5.09
2022-12-24T04:33:44.854Z,5.14
2022-12-24T04:36:17.234Z,5.17
2022-12-24T04:38:46.250Z,5.03
2022-12-24T04:41:23.621Z,5.02
2022-12-24T04:43:55.949Z,4.90
2022-12-24T04:46:26.635Z,5.07
2022-12-24T04:48:55.007Z,5.08
2022-12-24T04:51:23.798Z,5.04
2022-12-24T04:53:52.428Z,5.08
2022-12-24T04:56:22.498Z,5.15
2022-12-24T04:58:51.895Z,5.16
2022-12-24T05:01:25.943Z,5.16
2022-12-24T05:03:54.112Z,5.18
2022-12-24T05:06:24.577Z,5.12
2022-12-24T05:08:55.592Z,5.11
2022-12-24T05:11:24.002Z,5.13
2022-12-24T05:13:51.762Z,5.20
2022-12-24T05:16:21.639Z,5.22
2022-12-24T05:18:49.672Z,5.10
2022-12-24T05:21:21.655Z,5.01
2022-12-24T05:24:08.918Z,5.02
2022-12-24T05:26:42.108Z,5.05
2022-12-24T05:29:12.373Z,4.98
2022-12-24T05:31:41.033Z,4.96
2022-12-24T05:34:09.368Z,5.03
2022-12-24T05:36:37.623Z,4.99
2022-12-24T05:39:11.671Z,4.86
2022-12-24T05:41:43.003Z,4.75
2022-12-24T05:44:10.807Z,4.78
2022-12-24T05:46:39.982Z,4.82
2022-12-24T05:49:07.653Z,4.87
2022-12-24T05:51:35.663Z,4.85
2022-12-24T05:54:03.827Z,4.93
2022-12-24T05:56:31.527Z,5.09
2022-12-24T05:58:59.211Z,5.11
2022-12-24T06:01:28.000Z,4.81
2022-12-24T06:03:57.235Z,4.86
2022-12-24T06:06:27.907Z,5.02
2022-12-24T06:08:55.862Z,5.12
2022-12-24T06:11:26.007Z,5.07
2022-12-24T06:13:54.521Z,5.01
2022-12-24T06:16:25.989Z,5.03
2022-12-24T06:18:54.801Z,5.09
2022-12-24T06:21:22.756Z,5.15
2022-12-24T06:23:50.297Z,5.23
2022-12-24T06:26:21.350Z,5.15
2022-12-24T06:28:50.439Z,5.24
2022-12-24T06:31:20.580Z,5.26
2022-12-24T06:33:48.914Z,5.26
2022-12-24T06:36:22.077Z,5.20
2022-12-24T06:38:50.917Z,5.27
2022-12-24T06:41:25.442Z,5.29
2022-12-24T06:43:54.043Z,5.24
2022-12-24T06:46:22.189Z,5.22
2022-12-24T06:48:50.356Z,5.30
2022-12-24T06:51:19.988Z,5.21
2022-12-24T06:53:57.785Z,5.16
2022-12-24T06:56:26.782Z,5.12
2022-12-24T06:58:58.768Z,5.15
2022-12-24T07:01:29.467Z,5.27
2022-12-24T07:03:57.438Z,5.18
2022-12-24T07:06:28.023Z,5.29
2022-12-24T07:08:55.719Z,5.41
2022-12-24T07:11:25.031Z,5.36
2022-12-24T07:13:52.803Z,5.28
2022-12-24T07:16:20.537Z,5.33
2022-12-24T07:18:48.238Z,5.30
2022-12-24T07:21:15.782Z,5.19
2022-12-24T07:23:43.574Z,5.16
2022-12-24T07:26:11.220Z,5.11
2022-12-24T07:28:39.195Z,5.10
2022-12-24T07:31:06.827Z,5.11
2022-12-24T07:33:34.656Z,5.15
2022-12-24T07:36:07.346Z,5.11
2022-12-24T07:38:36.019Z,5.08
2022-12-24T07:41:03.865Z,5.09
2022-12-24T07:43:34.172Z,5.12
2022-12-24T07:46:02.400Z,5.20
2022-12-24T07:48:33.042Z,5.14
2022-12-24T07:51:01.145Z,5.17
2022-12-24T07:53:31.458Z,5.17
2022-12-24T07:55:59.121Z,5.16
2022-12-24T07:58:26.742Z,5.22
2022-12-24T08:00:59.624Z,5.24
2022-12-24T08:03:27.693Z,5.27
2022-12-24T08:05:55.471Z,5.29
2022-12-24T08:08:23.538Z,5.29
2022-12-24T08:10:51.740Z,5.37
2022-12-24T08:13:19.950Z,5.40
2022-12-24T08:15:47.865Z,5.43
2022-12-24T08:18:15.609Z,5.47
2022-12-24T08:20:43.219Z,5.53
2022-12-24T08:23:11.119Z,5.66
2022-12-24T08:25:46.103Z,5.78
2022-12-24T08:28:17.015Z,5.82
2022-12-24T08:30:44.995Z,5.85
2022-12-24T08:33:12.710Z,5.93
2022-12-24T08:35:40.435Z,6.01
2022-12-24T08:38:08.286Z,6.13
2022-12-24T08:40:36.350Z,6.18
2022-12-24T08:43:04.145Z,6.26
2022-12-24T08:45:37.974Z,6.26
2022-12-24T08:48:09.063Z,6.30
2022-12-24T08:50:40.133Z,6.39
2022-12-24T08:53:08.551Z,6.51
2022-12-24T08:55:36.341Z,6.71
2022-12-24T08:58:04.413Z,6.49
2022-12-24T09:00:33.269Z,6.43
2022-12-24T09:03:01.208Z,6.45
2022-12-24T09:05:29.201Z,6.43
2022-12-24T09:07:58.004Z,6.43
2022-12-24T09:10:26.544Z,6.32
2022-12-24T09:12:54.288Z,6.38
2022-12-24T09:15:22.104Z,6.46
2022-12-24T09:17:49.803Z,6.55
2022-12-24T09:20:17.419Z,6.63
2022-12-24T09:22:45.080Z,6.51
2022-12-24T09:25:12.609Z,6.49
2022-12-24T09:27:40.414Z,6.52
2022-12-24T09:30:08.684Z,6.39
2022-12-24T09:32:36.606Z,6.39
2022-12-24T09:35:07.047Z,6.34
2022-12-24T09:37:34.684Z,6.37
2022-12-24T09:40:02.377Z,6.38
2022-12-24T09:42:51.976Z,6.32
2022-12-24T09:45:38.743Z,6.24
2022-12-24T09:48:15.001Z,6.22
2022-12-24T09:50:46.730Z,6.23
2022-12-24T09:53:37.675Z,6.29
2022-12-24T09:56:22.659Z,6.23
2022-12-24T09:59:00.035Z,6.25
2022-12-24T10:01:31.395Z,6.37
2022-12-24T10:04:03.166Z,6.37
2022-12-24T10:06:44.983Z,6.30
2022-12-24T10:09:35.598Z,6.34
2022-12-24T10:12:13.895Z,6.35
2022-12-24T10:15:15.317Z,6.44
2022-12-24T10:18:01.207Z,6.51
2022-12-24T10:20:39.348Z,6.49
2022-12-24T10:23:22.573Z,6.54
2022-12-24T10:26:10.167Z,6.59
2022-12-24T10:28:58.544Z,6.68
2022-12-24T10:31:29.983Z,6.75
2022-12-24T10:34:01.985Z,6.80
2022-12-24T10:36:31.077Z,6.80
2022-12-24T10:38:59.696Z,6.86
2022-12-24T10:41:28.672Z,6.82
2022-12-24T10:43:57.647Z,6.84
2022-12-24T10:46:37.948Z,6.86
2022-12-24T10:49:12.724Z,6.81
2022-12-24T10:52:12.779Z,6.80
2022-12-24T10:55:11.124Z,6.81
2022-12-24T10:57:40.665Z,6.70
2022-12-24T11:00:20.320Z,6.81
2022-12-24T11:02:50.086Z,6.88
2022-12-24T11:05:35.366Z,6.96
2022-12-24T11:08:17.914Z,6.90
2022-12-24T11:11:01.068Z,6.90
2022-12-24T11:13:39.097Z,6.91
2022-12-24T11:16:17.518Z,6.85
2022-12-24T11:18:54.139Z,6.96
2022-12-24T11:21:21.658Z,6.97
2022-12-24T11:23:58.693Z,6.95
2022-12-24T11:26:29.549Z,6.90
2022-12-24T11:29:07.260Z,6.92
2022-12-24T11:31:37.596Z,6.94
2022-12-24T11:34:31.803Z,6.97
2022-12-24T11:37:22.569Z,6.95
2022-12-24T11:39:53.127Z,6.89
2022-12-24T11:42:39.205Z,6.92
2022-12-24T11:45:15.965Z,6.94
2022-12-24T11:47:43.696Z,6.94
2022-12-24T11:50:20.494Z,6.91
2022-12-24T11:52:52.686Z,6.98
2022-12-24T11:55:29.819Z,7.07
2022-12-24T11:58:05.734Z,7.10
2022-12-24T12:00:33.329Z,7.11
2022-12-24T12:03:03.268Z,7.13
2022-12-24T12:05:35.296Z,7.11
2022-12-24T12:08:18.990Z,7.10
2022-12-24T12:10:49.555Z,7.14
2022-12-24T12:13:27.370Z,6.97
2022-12-24T12:16:16.527Z,6.94
2022-12-24T12:18:52.572Z,7.00
2022-12-24T12:21:27.222Z,6.97
2022-12-24T12:24:08.165Z,6.93
2022-12-24T12:26:36.458Z,6.87
2022-12-24T12:29:29.254Z,6.83
2022-12-24T12:32:05.006Z,6.85
2022-12-24T12:34:42.474Z,6.82
2022-12-24T12:37:21.804Z,6.84
2022-12-24T12:39:49.422Z,6.80
2022-12-24T12:42:17.836Z,6.85
2022-12-24T12:44:54.593Z,6.84
2022-12-24T12:47:34.633Z,6.83
2022-12-24T12:50:29.557Z,6.80
2022-12-24T12:52:59.951Z,6.78
2022-12-24T12:55:42.887Z,6.71
2022-12-24T12:58:19.425Z,6.69
2022-12-24T13:00:52.727Z,6.75
2022-12-24T13:03:38.552Z,6.79
2022-12-24T13:06:43.791Z,6.77
2022-12-24T13:09:25.957Z,6.72
2022-12-24T13:12:26.167Z,6.70
2022-12-24T13:15:03.060Z,6.64
2022-12-24T13:17:40.128Z,6.61
2022-12-24T13:20:19.479Z,6.53
2022-12-24T13:22:56.948Z,6.51
2022-12-24T13:25:34.424Z,6.49
2022-12-24T13:28:30.591Z,6.50
2022-12-24T13:31:20.019Z,6.44
2022-12-24T13:33:50.518Z,6.45
2022-12-24T13:36:19.919Z,6.42
2022-12-24T13:38:50.547Z,6.45
2022-12-24T13:41:40.078Z,6.42
2022-12-24T13:44:13.225Z,6.44
2022-12-24T13:47:05.048Z,6.46
2022-12-24T13:49:44.786Z,6.51
2022-12-24T13:52:12.425Z,6.57
2022-12-24T13:54:55.105Z,6.54
2022-12-24T13:57:31.921Z,6.58
2022-12-24T14:00:06.432Z,6.68
2022-12-24T14:03:03.887Z,6.69
2022-12-24T14:05:46.514Z,6.74
2022-12-24T14:08:30.579Z,6.68
2022-12-24T14:11:15.396Z,6.69
2022-12-24T14:13:43.309Z,6.74
2022-12-24T14:16:26.629Z,6.74
2022-12-24T14:19:04.191Z,6.72
2022-12-24T14:21:35.752Z,6.74
2022-12-24T14:24:07.033Z,6.79
2022-12-24T14:26:44.689Z,6.81
2022-12-24T14:29:43.551Z,6.77
2022-12-24T14:32:16.139Z,6.70
2022-12-24T14:34:43.961Z,6.73
2022-12-24T14:37:14.044Z,6.72
2022-12-24T14:39:48.278Z,6.70
2022-12-24T14:42:34.584Z,6.67
2022-12-24T14:45:21.614Z,6.64
2022-12-24T14:48:15.665Z,6.64
2022-12-24T14:51:04.860Z,6.65
2022-12-24T14:53:43.109Z,6.62
2022-12-24T14:56:16.393Z,6.62
2022-12-24T14:58:45.798Z,6.62
2022-12-24T15:01:30.610Z,6.58
2022-12-24T15:04:04.423Z,6.63
2022-12-24T15:06:37.155Z,6.64
2022-12-24T15:09:05.379Z,6.66
2022-12-24T15:11:33.202Z,6.58
2022-12-24T15:14:00.892Z,6.64
2022-12-24T15:16:32.133Z,6.60
2022-12-24T15:19:04.170Z,6.59
2022-12-24T15:21:41.323Z,6.54
2022-12-24T15:24:32.430Z,6.52
2022-12-24T15:27:06.646Z,6.47
2022-12-24T15:29:42.971Z,6.47
2022-12-24T15:32:14.309Z,6.47
2022-12-24T15:34:49.930Z,6.47
2022-12-24T15:37:22.760Z,6.43
2022-12-24T15:40:04.590Z,6.45
2022-12-24T15:42:34.188Z,6.45
2022-12-24T15:45:04.541Z,6.43
2022-12-24T15:47:39.730Z,6.40
2022-12-24T15:50:16.316Z,6.37
2022-12-24T15:52:44.759Z,6.30
2022-12-24T15:55:41.792Z,6.29
2022-12-24T15:58:30.859Z,6.23
2022-12-24T16:01:03.507Z,6.24
2022-12-24T16:03:33.245Z,6.16
2022-12-24T16:06:08.769Z,6.21
2022-12-24T16:08:41.882Z,6.26
2022-12-24T16:11:12.656Z,6.25
2022-12-24T16:13:51.539Z,6.28
2022-12-24T16:16:22.274Z,6.29
2022-12-24T16:18:57.079Z,6.21
2022-12-24T16:21:30.305Z,6.19
2022-12-24T16:24:22.942Z,6.14
2022-12-24T16:26:51.244Z,6.10
2022-12-24T16:29:19.607Z,6.13
2022-12-24T16:31:51.934Z,6.17
2022-12-24T16:34:23.564Z,6.14
2022-12-24T16:36:51.223Z,6.10
2022-12-24T16:39:24.840Z,6.07
2022-12-24T16:42:17.268Z,6.07
2022-12-24T16:44:45.799Z,6.09
2022-12-24T16:47:27.501Z,6.17
2022-12-24T16:49:56.688Z,6.14
2022-12-24T16:52:29.281Z,6.05
2022-12-24T16:54:57.731Z,6.14
2022-12-24T16:57:26.573Z,6.08
2022-12-24T16:59:54.831Z,6.02
2022-12-24T17:02:25.190Z,6.06
2022-12-24T17:04:53.010Z,6.05
2022-12-24T17:07:21.789Z,6.03
2022-12-24T17:09:49.420Z,6.11
2022-12-24T17:12:16.992Z,6.20
2022-12-24T17:14:44.969Z,6.27
2022-12-24T17:17:25.007Z,6.08
2022-12-24T17:19:52.777Z,6.00
2022-12-24T17:22:20.615Z,5.98
2022-12-24T17:24:48.420Z,5.89
2022-12-24T17:27:16.494Z,5.87
2022-12-24T17:29:44.259Z,5.87
2022-12-24T17:32:12.989Z,5.79
2022-12-24T17:34:40.858Z,5.75
2022-12-24T17:37:08.403Z,5.72
2022-12-24T17:39:36.203Z,5.71
2022-12-24T17:42:04.304Z,5.72
2022-12-24T17:44:32.102Z,5.76
2022-12-24T17:46:59.980Z,5.66
2022-12-24T17:49:28.085Z,5.65
2022-12-24T17:51:55.698Z,5.70
2022-12-24T17:54:23.679Z,5.67
2022-12-24T17:56:51.167Z,5.73
2022-12-24T17:59:18.814Z,5.74
2022-12-24T18:01:46.406Z,5.74
2022-12-24T18:04:14.161Z,5.85
2022-12-24T18:06:47.164Z,5.72
2022-12-24T18:09:17.054Z,5.66
2022-12-24T18:11:44.778Z,5.54
2022-12-24T18:14:14.293Z,5.57
2022-12-24T18:16:42.149Z,5.65
2022-12-24T18:19:12.603Z,5.59
2022-12-24T18:21:40.653Z,5.57
2022-12-24T18:24:09.362Z,5.60
2022-12-24T18:26:36.903Z,5.57
2022-12-24T18:29:05.054Z,5.59
2022-12-24T18:31:34.164Z,5.61
2022-12-24T18:34:04.439Z,5.68
2022-12-24T18:36:33.160Z,5.76
2022-12-24T18:39:01.070Z,5.80
2022-12-24T18:41:30.825Z,5.80
2022-12-24T18:43:59.556Z,5.76
2022-12-24T18:46:30.363Z,5.66
2022-12-24T18:49:00.337Z,5.68
2022-12-24T18:51:31.597Z,5.64
2022-12-24T18:53:59.233Z,5.68
2022-12-24T18:56:27.110Z,5.78
2022-12-24T18:58:56.647Z,5.67
2022-12-24T19:01:32.129Z,5.52
2022-12-24T19:04:00.007Z,5.49
2022-12-24T19:06:29.727Z,5.44
2022-12-24T19:08:59.646Z,5.38
2022-12-24T19:11:29.834Z,5.29
2022-12-24T19:14:00.291Z,5.23
2022-12-24T19:16:29.842Z,5.26
2022-12-24T19:18:57.807Z,5.28
2022-12-24T19:21:25.907Z,5.21
2022-12-24T19:23:53.717Z,5.14
2022-12-24T19:26:22.138Z,5.23
2022-12-24T19:28:51.148Z,5.17
2022-12-24T19:31:25.026Z,5.08
2022-12-24T19:33:55.830Z,5.08
2022-12-24T19:36:27.663Z,5.04
2022-12-24T19:38:56.609Z,5.15
2022-12-24T19:41:27.501Z,5.34
2022-12-24T19:43:58.046Z,5.31
2022-12-24T19:46:33.480Z,5.29
2022-12-24T19:49:05.288Z,5.33
2022-12-24T19:51:35.561Z,5.36
2022-12-24T19:54:04.622Z,5.40
2022-12-24T19:56:33.464Z,5.47
2022-12-24T19:59:02.597Z,5.36
2022-12-24T20:01:33.237Z,5.50
2022-12-24T20:04:02.154Z,5.46
2022-12-24T20:06:34.102Z,5.40
2022-12-24T20:09:08.388Z,5.47
2022-12-24T20:11:36.330Z,5.49
2022-12-24T20:14:06.030Z,5.53
2022-12-24T20:16:35.469Z,5.54
2022-12-24T20:19:06.677Z,5.62
2022-12-24T20:21:35.374Z,5.65
2022-12-24T20:24:03.191Z,5.53
2022-12-24T20:26:30.932Z,5.52
2022-12-24T20:29:02.668Z,5.41
2022-12-24T20:31:31.086Z,5.58
2022-12-24T20:34:01.423Z,5.64
2022-12-24T20:36:30.037Z,5.73
2022-12-24T20:38:58.875Z,5.67
2022-12-24T20:41:31.342Z,5.48
2022-12-24T20:44:00.923Z,5.43
2022-12-24T20:46:28.920Z,5.44
2022-12-24T20:48:58.377Z,5.43
2022-12-24T20:51:28.642Z,5.59
2022-12-24T20:53:57.649Z,5.54
2022-12-24T20:56:25.874Z,5.52
2022-12-24T20:58:53.996Z,5.42
2022-12-24T21:01:24.789Z,5.34
2022-12-24T21:03:54.873Z,5.46
2022-12-24T21:06:24.479Z,5.54
2022-12-24T21:08:52.540Z,5.54
2022-12-24T21:11:39.159Z,5.38
2022-12-24T21:14:06.900Z,5.23
2022-12-24T21:16:39.215Z,5.14
2022-12-24T21:19:07.979Z,5.13
2022-12-24T21:21:36.527Z,5.12
2022-12-24T21:24:04.824Z,5.21
2022-12-24T21:26:33.472Z,5.17
2022-12-24T21:29:01.610Z,5.20
2022-12-24T21:31:29.500Z,5.17
2022-12-24T21:33:57.976Z,5.28
2022-12-24T21:36:25.594Z,5.21
2022-12-24T21:38:54.721Z,5.28
2022-12-24T21:41:26.159Z,5.32
2022-12-24T21:43:53.889Z,5.38
2022-12-24T21:46:25.240Z,5.30
2022-12-24T21:49:13.363Z,5.29
2022-12-24T21:51:41.696Z,5.32
2022-12-24T21:54:25.389Z,5.38
2022-12-24T21:57:14.284Z,5.33
2022-12-24T21:59:42.967Z,5.40
2022-12-24T22:02:15.882Z,5.52
2022-12-24T22:04:43.784Z,5.52
2022-12-24T22:07:44.210Z,5.47
2022-12-24T22:10:31.982Z,5.40
2022-12-24T22:13:00.920Z,5.28
2022-12-24T22:15:28.499Z,5.35
2022-12-24T22:17:56.162Z,5.40
2022-12-24T22:20:24.184Z,5.37
2022-12-24T22:22:52.138Z,5.16
2022-12-24T22:25:19.707Z,5.19
2022-12-24T22:27:47.303Z,5.24
2022-12-24T22:30:14.842Z,5.26
2022-12-24T22:32:43.515Z,5.14
2022-12-24T22:35:11.503Z,5.14
2022-12-24T22:37:39.257Z,5.09
2022-12-24T22:40:08.144Z,5.03
2022-12-24T22:42:35.872Z,5.01
2022-12-24T22:45:03.958Z,4.94
2022-12-24T22:47:32.995Z,5.08
2022-12-24T22:50:00.575Z,5.09
2022-12-24T22:52:35.448Z,5.23
2022-12-24T22:55:04.301Z,5.23
2022-12-24T22:57:32.039Z,5.26
2022-12-24T22:59:59.771Z,5.25
2022-12-24T23:02:28.737Z,5.24
2022-12-24T23:04:56.609Z,5.24
2022-12-24T23:07:24.844Z,5.15
2022-12-24T23:09:52.368Z,5.17
2022-12-24T23:12:39.842Z,5.15
2022-12-24T23:15:08.497Z,5.38
2022-12-24T23:17:36.236Z,5.43
2022-12-24T23:20:04.097Z,5.44
2022-12-24T23:22:32.153Z,5.51
2022-12-24T23:24:59.683Z,5.59
2022-12-24T23:27:31.319Z,5.63
2022-12-24T23:29:59.055Z,5.71
2022-12-24T23:32:26.672Z,5.59
2022-12-24T23:34:54.285Z,5.55
2022-12-24T23:37:21.880Z,5.65
2022-12-24T23:39:52.049Z,5.65
2022-12-24T23:42:19.723Z,5.63
2022-12-24T23:44:48.374Z,5.54
2022-12-24T23:47:15.865Z,5.54
2022-12-24T23:49:43.597Z,5.52
2022-12-24T23:52:11.318Z,5.43
2022-12-24T23:54:39.201Z,5.47
2022-12-24T23:57:06.750Z,5.46
2022-12-24T23:59:34.453Z,5.55
